Leon, New York
Current Conditions -  °F | °C
As of 12:55 PM on Thursday 30 Oct 2014 (Local Time) from KJHW Reporting Station
Overcast Overcast  
Wind Chill: 37°   Ceiling: 2800
Heat Index: 43°   Visibility: 10mi
Dew Point: 34°   Wind: 9mph
Humidity: 70%   Direction: 300°WNW
Pressure: 30.06"   Gusts: NA
Location:  42.29°N, 79.02°W
Report Text: KJHW 301655Z AUTO 30008KT 10SM SCT021 OVC028 06/01 A3006 RMK AO1
Loading
Personal Weather Stations






























Interactive Weather Map
Tropical Storm Tracking
New forecast layout! Learn more

10-Day Weather Forecast

Advertisements
Track Severe Weather on mobile